Terminal Aerodrome Forecast
Issued by NWS Upton, NY

Home | Current Version | Previous Version | Text Only | Print | Product List | Glossary On
Versions: 1 2 3 4 5 6 7 8 9 10 11 12 13 14 15 16 17 18 19 20 21 22 23 24 25 26 27 28 29 30 31 32 33 34 35
000
FTUS41 KOKX 280832 AAA
TAFEWR
TAF AMD
KEWR 280832Z 2809/2912 33012G18KT P6SM BKN050
     FM281300 34015G21KT P6SM BKN050
     FM281900 33015G21KT P6SM VCSH BKN040
     FM282200 32017G25KT P6SM VCSH OVC040
     FM290400 33015G24KT P6SM BKN050=

USA.gov is the U.S. government's official web portal to all federal, state and local government web resources and services.